createdAt,value
2022-10-22T00:01:08.941Z,100193.69
2022-10-22T00:03:38.944Z,100191.88
2022-10-22T00:06:07.261Z,100196.66
2022-10-22T00:08:35.139Z,100198.50
2022-10-22T00:11:14.456Z,100203.47
2022-10-22T00:13:43.669Z,100195.16
2022-10-22T00:16:12.235Z,100192.19
2022-10-22T00:18:43.039Z,100182.38
2022-10-22T00:21:13.924Z,100185.75
2022-10-22T00:23:42.291Z,100180.44
2022-10-22T00:26:10.667Z,100168.81
2022-10-22T00:28:38.617Z,100172.78
2022-10-22T00:31:08.237Z,100179.47
2022-10-22T00:33:36.149Z,100175.66
2022-10-22T00:36:03.997Z,100171.88
2022-10-22T00:38:31.868Z,100178.66
2022-10-22T00:40:59.631Z,100174.19
2022-10-22T00:43:28.436Z,100166.22
2022-10-22T00:45:56.281Z,100164.41
2022-10-22T00:48:29.270Z,100170.38
2022-10-22T00:51:00.759Z,100162.41
2022-10-22T00:53:32.692Z,100154.28
2022-10-22T00:56:01.602Z,100150.78
2022-10-22T00:58:31.975Z,100160.28
2022-10-22T01:01:00.321Z,100160.41
2022-10-22T01:03:29.825Z,100153.28
2022-10-22T01:06:00.214Z,100153.28
2022-10-22T01:08:41.250Z,100142.66
2022-10-22T01:11:20.778Z,100142.97
2022-10-22T01:13:55.196Z,100149.44
2022-10-22T01:16:34.283Z,100152.09
2022-10-22T01:19:19.453Z,100162.56
2022-10-22T01:21:52.497Z,100172.19
2022-10-22T01:24:32.733Z,100166.88
2022-10-22T01:27:32.631Z,100163.22
2022-10-22T01:30:04.723Z,100150.94
2022-10-22T01:32:37.770Z,100163.91
2022-10-22T01:35:09.980Z,100160.41
2022-10-22T01:37:42.871Z,100158.91
2022-10-22T01:40:12.817Z,100168.22
2022-10-22T01:42:40.674Z,100161.88
2022-10-22T01:45:14.813Z,100159.38
2022-10-22T01:47:53.690Z,100167.66
2022-10-22T01:50:47.598Z,100168.81
2022-10-22T01:53:26.190Z,100167.16
2022-10-22T01:56:17.984Z,100164.81
2022-10-22T01:58:54.445Z,100164.81
2022-10-22T02:01:36.460Z,100168.59
2022-10-22T02:04:14.609Z,100193.50
2022-10-22T02:06:45.486Z,100195.16
2022-10-22T02:09:19.367Z,100187.47
2022-10-22T02:11:48.725Z,100199.78
2022-10-22T02:14:18.954Z,100193.34
2022-10-22T02:16:51.746Z,100201.31
2022-10-22T02:19:25.581Z,100210.13
2022-10-22T02:21:54.643Z,100203.63
2022-10-22T02:24:23.499Z,100198.66
2022-10-22T02:27:00.073Z,100191.69
2022-10-22T02:29:33.262Z,100184.53
2022-10-22T02:32:06.673Z,100182.31
2022-10-22T02:34:34.630Z,100187.47
2022-10-22T02:37:04.351Z,100196.59
2022-10-22T02:39:33.363Z,100210.00
2022-10-22T02:42:02.975Z,100208.81
2022-10-22T02:44:30.749Z,100212.47
2022-10-22T02:46:59.522Z,100217.97
2022-10-22T02:49:29.095Z,100219.66
2022-10-22T02:51:57.347Z,100211.69
2022-10-22T02:54:25.065Z,100217.16
2022-10-22T02:56:52.860Z,100220.81
2022-10-22T02:59:20.738Z,100222.25
2022-10-22T03:01:48.605Z,100214.13
2022-10-22T03:04:16.440Z,100208.53
2022-10-22T03:06:48.505Z,100205.69
2022-10-22T03:09:17.486Z,100204.56
2022-10-22T03:11:47.941Z,100217.53
2022-10-22T03:14:15.757Z,100219.22
2022-10-22T03:16:43.721Z,100219.88
2022-10-22T03:19:11.600Z,100235.50
2022-10-22T03:21:46.825Z,100236.34
2022-10-22T03:24:18.805Z,100250.59
2022-10-22T03:26:49.525Z,100258.72
2022-10-22T03:29:17.692Z,100260.38
2022-10-22T03:31:45.436Z,100266.69
2022-10-22T03:34:13.658Z,100256.22
2022-10-22T03:36:42.308Z,100261.69
2022-10-22T03:39:14.303Z,100260.16
2022-10-22T03:41:42.657Z,100246.38
2022-10-22T03:44:10.477Z,100250.69
2022-10-22T03:46:38.358Z,100257.66
2022-10-22T03:49:06.648Z,100259.31
2022-10-22T03:51:35.773Z,100268.81
2022-10-22T03:54:04.092Z,100274.25
2022-10-22T03:56:33.743Z,100275.78
2022-10-22T03:59:02.462Z,100277.63
2022-10-22T04:01:31.625Z,100281.81
2022-10-22T04:04:00.092Z,100277.63
2022-10-22T04:06:31.332Z,100280.28
2022-10-22T04:09:01.092Z,100277.63
2022-10-22T04:11:29.039Z,100290.59
2022-10-22T04:13:58.118Z,100280.28
2022-10-22T04:16:30.991Z,100281.09
2022-10-22T04:18:59.373Z,100294.38
2022-10-22T04:21:27.191Z,100301.53
2022-10-22T04:23:55.221Z,100305.44
2022-10-22T04:26:22.995Z,100299.97
2022-10-22T04:28:51.990Z,100296.47
2022-10-22T04:31:23.221Z,100295.13
2022-10-22T04:33:54.132Z,100293.47
2022-10-22T04:36:22.918Z,100293.47
2022-10-22T04:38:55.465Z,100296.41
2022-10-22T04:41:25.035Z,100304.38
2022-10-22T04:43:54.739Z,100304.91
2022-10-22T04:46:25.025Z,100301.25
2022-10-22T04:48:53.324Z,100300.44
2022-10-22T04:51:23.286Z,100298.47
2022-10-22T04:53:53.962Z,100301.78
2022-10-22T04:56:24.875Z,100294.00
2022-10-22T04:58:56.373Z,100296.34
2022-10-22T05:01:27.803Z,100298.13
2022-10-22T05:03:57.486Z,100297.19
2022-10-22T05:06:26.152Z,100301.13
2022-10-22T05:08:55.773Z,100300.28
2022-10-22T05:11:25.607Z,100299.31
2022-10-22T05:13:53.676Z,100305.13
2022-10-22T05:16:21.402Z,100301.19
2022-10-22T05:18:50.649Z,100303.34
2022-10-22T05:21:20.243Z,100309.09
2022-10-22T05:23:50.115Z,100308.75
2022-10-22T05:26:21.887Z,100310.59
2022-10-22T05:28:51.022Z,100320.38
2022-10-22T05:31:20.012Z,100321.50
2022-10-22T05:33:48.227Z,100324.34
2022-10-22T05:36:20.115Z,100316.91
2022-10-22T05:38:47.968Z,100321.91
2022-10-22T05:41:19.921Z,100337.38
2022-10-22T05:43:50.765Z,100335.31
2022-10-22T05:46:22.990Z,100351.78
2022-10-22T05:48:51.995Z,100338.22
2022-10-22T05:51:21.694Z,100344.00
2022-10-22T05:53:53.680Z,100345.66
2022-10-22T05:56:22.412Z,100351.78
2022-10-22T05:58:50.713Z,100350.84
2022-10-22T06:01:20.519Z,100352.31
2022-10-22T06:03:48.580Z,100357.53
2022-10-22T06:06:21.945Z,100356.53
2022-10-22T06:08:53.910Z,100364.94
2022-10-22T06:11:23.582Z,100367.44
2022-10-22T06:13:52.474Z,100376.91
2022-10-22T06:16:20.449Z,100378.25
2022-10-22T06:18:48.306Z,100389.66
2022-10-22T06:21:17.716Z,100383.09
2022-10-22T06:23:46.956Z,100390.25
2022-10-22T06:26:15.356Z,100395.78
2022-10-22T06:28:43.096Z,100396.47
2022-10-22T06:31:11.390Z,100399.97
2022-10-22T06:33:42.318Z,100399.81
2022-10-22T06:36:12.614Z,100403.47
2022-10-22T06:38:41.016Z,100408.78
2022-10-22T06:41:12.611Z,100415.75
2022-10-22T06:43:40.890Z,100413.63
2022-10-22T06:46:13.683Z,100428.56
2022-10-22T06:48:50.381Z,100416.81
2022-10-22T06:51:18.588Z,100421.28
2022-10-22T06:53:46.927Z,100420.75
2022-10-22T06:56:18.217Z,100426.13
2022-10-22T06:58:48.151Z,100428.53
2022-10-22T07:01:18.061Z,100440.16
2022-10-22T07:03:46.581Z,100441.97
2022-10-22T07:06:15.693Z,100435.97
2022-10-22T07:08:44.426Z,100437.34
2022-10-22T07:11:15.161Z,100441.97
2022-10-22T07:13:45.190Z,100442.13
2022-10-22T07:16:13.457Z,100451.06
2022-10-22T07:18:42.496Z,100457.53
2022-10-22T07:21:12.220Z,100468.69
2022-10-22T07:23:40.579Z,100465.84
2022-10-22T07:26:09.367Z,100477.00
2022-10-22T07:28:39.861Z,100486.53
2022-10-22T07:31:10.616Z,100486.59
2022-10-22T07:33:39.351Z,100496.63
2022-10-22T07:36:09.630Z,100493.97
2022-10-22T07:38:38.172Z,100502.63
2022-10-22T07:41:06.212Z,100499.50
2022-10-22T07:43:34.190Z,100502.53
2022-10-22T07:46:02.915Z,100497.75
2022-10-22T07:48:34.639Z,100493.22
2022-10-22T07:51:03.048Z,100511.34
2022-10-22T07:53:31.233Z,100512.09
2022-10-22T07:55:59.052Z,100508.63
2022-10-22T07:58:27.104Z,100512.47
2022-10-22T08:00:57.522Z,100508.50
2022-10-22T08:03:25.491Z,100514.66
2022-10-22T08:05:55.162Z,100524.00
2022-10-22T08:08:25.925Z,100521.84
2022-10-22T08:10:58.610Z,100524.22
2022-10-22T08:13:27.512Z,100522.28
2022-10-22T08:15:57.511Z,100520.06
2022-10-22T08:18:25.768Z,100515.88
2022-10-22T08:20:57.919Z,100525.31
2022-10-22T08:23:28.280Z,100515.63
2022-10-22T08:25:57.253Z,100521.09
2022-10-22T08:28:25.143Z,100517.19
2022-10-22T08:30:53.016Z,100522.16
2022-10-22T08:33:20.862Z,100530.59
2022-10-22T08:35:49.479Z,100532.22
2022-10-22T08:38:19.463Z,100533.28
2022-10-22T08:40:50.903Z,100531.50
2022-10-22T08:43:38.379Z,100529.84
2022-10-22T08:46:20.517Z,100534.03
2022-10-22T08:48:53.015Z,100530.56
2022-10-22T08:51:24.378Z,100544.78
2022-10-22T08:54:11.561Z,100536.44
2022-10-22T08:56:44.334Z,100548.78
2022-10-22T08:59:18.883Z,100552.28
2022-10-22T09:01:49.880Z,100553.34
2022-10-22T09:04:25.354Z,100551.78
2022-10-22T09:06:54.595Z,100553.63
2022-10-22T09:09:28.748Z,100553.63
2022-10-22T09:12:00.120Z,100563.81
2022-10-22T09:14:29.893Z,100559.66
2022-10-22T09:17:14.364Z,100564.97
2022-10-22T09:19:56.340Z,100558.47
2022-10-22T09:25:20.286Z,100559.63
2022-10-22T09:27:49.375Z,100557.31
2022-10-22T09:30:18.914Z,100554.66
2022-10-22T09:32:47.110Z,100561.13
2022-10-22T09:35:16.058Z,100564.97
2022-10-22T09:37:53.090Z,100567.00
2022-10-22T09:40:22.936Z,100570.34
2022-10-22T09:42:50.905Z,100564.31
2022-10-22T09:45:25.246Z,100566.66
2022-10-22T09:48:11.038Z,100567.16
2022-10-22T09:50:44.269Z,100582.00
2022-10-22T09:53:18.336Z,100576.16
2022-10-22T09:55:52.179Z,100570.63
2022-10-22T09:58:20.607Z,100578.31
2022-10-22T10:00:54.587Z,100578.44
2022-10-22T10:03:25.394Z,100584.13
2022-10-22T10:05:55.845Z,100580.09
2022-10-22T10:08:27.146Z,100582.78
2022-10-22T10:11:01.122Z,100589.59
2022-10-22T10:13:43.375Z,100591.09
2022-10-22T10:16:27.450Z,100591.59
2022-10-22T10:19:14.138Z,100596.91
2022-10-22T10:21:51.738Z,100587.22
2022-10-22T10:24:27.170Z,100583.72
2022-10-22T10:27:02.816Z,100578.84
2022-10-22T10:29:45.648Z,100584.84
2022-10-22T10:32:28.939Z,100586.34
2022-10-22T10:35:07.891Z,100577.00
2022-10-22T10:37:42.156Z,100579.97
2022-10-22T10:40:25.457Z,100591.00
2022-10-22T10:43:00.040Z,100584.13
2022-10-22T10:45:34.336Z,100586.75
2022-10-22T10:48:13.248Z,100592.41
2022-10-22T10:50:53.760Z,100587.06
2022-10-22T10:53:35.612Z,100586.69
2022-10-22T10:56:17.455Z,100579.38
2022-10-22T10:58:57.198Z,100578.00
2022-10-22T11:01:30.820Z,100575.09
2022-10-22T11:04:22.884Z,100572.50
2022-10-22T11:06:56.356Z,100569.19
2022-10-22T11:09:37.510Z,100565.16
2022-10-22T11:12:11.978Z,100573.66
2022-10-22T11:14:50.587Z,100563.38
2022-10-22T11:17:19.390Z,100556.56
2022-10-22T11:19:57.835Z,100563.41
2022-10-22T11:22:33.296Z,100557.81
2022-10-22T11:25:06.767Z,100560.69
2022-10-22T11:27:40.733Z,100556.16
2022-10-22T11:30:14.969Z,100568.25
2022-10-22T11:32:45.623Z,100557.56
2022-10-22T11:35:18.208Z,100560.94
2022-10-22T11:37:49.280Z,100558.03
2022-10-22T11:40:21.119Z,100557.00
2022-10-22T11:42:51.685Z,100558.75
2022-10-22T11:45:32.361Z,100565.13
2022-10-22T11:48:08.861Z,100558.09
2022-10-22T11:50:50.675Z,100559.00
2022-10-22T11:53:21.057Z,100559.13
2022-10-22T11:55:51.576Z,100551.03
2022-10-22T11:58:44.646Z,100547.66
2022-10-22T12:01:41.467Z,100555.44
2022-10-22T12:04:23.595Z,100559.91
2022-10-22T12:07:00.558Z,100556.94
2022-10-22T12:09:32.650Z,100565.25
2022-10-22T12:12:15.971Z,100552.56
2022-10-22T12:14:55.269Z,100556.47
2022-10-22T12:17:25.194Z,100548.75
2022-10-22T12:20:02.218Z,100550.53
2022-10-22T12:22:32.904Z,100546.41
2022-10-22T12:25:03.134Z,100549.28
2022-10-22T12:27:36.702Z,100550.97
2022-10-22T12:30:19.182Z,100546.06
2022-10-22T12:32:48.419Z,100542.78
2022-10-22T12:35:19.814Z,100542.84
2022-10-22T12:37:51.164Z,100544.03
2022-10-22T12:40:21.527Z,100546.34
2022-10-22T12:42:51.273Z,100544.19
2022-10-22T12:45:19.865Z,100544.25
2022-10-22T12:47:49.539Z,100544.75
2022-10-22T12:50:20.752Z,100546.25
2022-10-22T12:52:50.200Z,100547.69
2022-10-22T12:55:19.363Z,100543.97
2022-10-22T12:57:50.345Z,100541.88
2022-10-22T13:00:24.626Z,100550.94
2022-10-22T13:02:54.599Z,100547.22
2022-10-22T13:05:27.252Z,100544.72
2022-10-22T13:08:02.893Z,100542.75
2022-10-22T13:10:34.221Z,100550.75
2022-10-22T13:13:03.236Z,100548.47
2022-10-22T13:15:39.126Z,100555.44
2022-10-22T13:18:19.539Z,100545.19
2022-10-22T13:20:56.419Z,100545.59
2022-10-22T13:23:25.795Z,100533.13
2022-10-22T13:26:02.617Z,100539.81
2022-10-22T13:28:33.081Z,100548.75
2022-10-22T13:31:02.413Z,100542.78
2022-10-22T13:33:35.363Z,100548.78
2022-10-22T13:36:07.180Z,100541.94
2022-10-22T13:38:35.141Z,100530.53
2022-10-22T13:41:03.171Z,100538.81
2022-10-22T13:43:31.073Z,100539.72
2022-10-22T13:46:00.989Z,100541.81
2022-10-22T13:48:31.476Z,100541.31
2022-10-22T13:51:00.776Z,100537.09
2022-10-22T13:53:31.197Z,100533.81
2022-10-22T13:55:59.191Z,100537.59
2022-10-22T13:58:27.111Z,100537.91
2022-10-22T14:00:57.067Z,100531.34
2022-10-22T14:03:28.077Z,100531.06
2022-10-22T14:05:56.109Z,100541.75
2022-10-22T14:08:27.194Z,100535.75
2022-10-22T14:10:55.404Z,100537.06
2022-10-22T14:13:23.391Z,100538.19
2022-10-22T14:15:52.797Z,100537.34
2022-10-22T14:18:25.478Z,100527.59
2022-10-22T14:20:56.080Z,100528.75
2022-10-22T14:23:28.365Z,100535.13
2022-10-22T14:25:56.397Z,100541.47
2022-10-22T14:28:24.224Z,100533.34
2022-10-22T14:30:53.638Z,100535.81
2022-10-22T14:33:28.817Z,100545.59
2022-10-22T14:35:59.861Z,100540.28
2022-10-22T14:38:29.070Z,100554.56
2022-10-22T14:40:57.711Z,100544.69
2022-10-22T14:43:28.002Z,100546.75
2022-10-22T14:45:56.384Z,100537.91
2022-10-22T14:48:24.544Z,100553.13
2022-10-22T14:50:52.714Z,100546.66
2022-10-22T14:53:20.538Z,100538.16
2022-10-22T14:55:51.409Z,100541.84
2022-10-22T14:58:19.268Z,100545.59
2022-10-22T15:00:47.326Z,100540.72
2022-10-22T15:03:15.073Z,100544.97
2022-10-22T15:05:44.792Z,100557.03
2022-10-22T15:08:14.088Z,100560.63
2022-10-22T15:10:42.060Z,100555.09
2022-10-22T15:13:11.337Z,100556.72
2022-10-22T15:15:41.218Z,100561.72
2022-10-22T15:18:09.057Z,100564.50
2022-10-22T15:20:36.908Z,100555.63
2022-10-22T15:23:04.948Z,100565.34
2022-10-22T15:25:32.829Z,100559.66
2022-10-22T15:28:02.082Z,100559.94
2022-10-22T15:30:36.701Z,100550.25
2022-10-22T15:33:04.499Z,100566.28
2022-10-22T15:35:32.371Z,100561.81
2022-10-22T15:38:00.164Z,100551.34
2022-10-22T15:40:29.602Z,100557.47
2022-10-22T15:42:57.324Z,100563.03
2022-10-22T15:45:45.431Z,100573.28
2022-10-22T15:48:15.439Z,100573.69
2022-10-22T15:50:43.454Z,100578.13
2022-10-22T15:53:11.406Z,100572.69
2022-10-22T15:55:39.294Z,100577.44
2022-10-22T15:58:07.207Z,100578.13
2022-10-22T16:00:35.101Z,100582.19
2022-10-22T16:03:04.294Z,100579.91
2022-10-22T16:05:32.131Z,100576.25
2022-10-22T16:07:59.881Z,100578.09
2022-10-22T16:10:28.061Z,100578.13
2022-10-22T16:12:57.641Z,100581.47
2022-10-22T16:15:25.532Z,100583.97
2022-10-22T16:17:53.272Z,100576.81
2022-10-22T16:20:22.470Z,100582.50
2022-10-22T16:22:51.090Z,100582.34
2022-10-22T16:25:19.101Z,100584.00
2022-10-22T16:27:50.623Z,100588.47
2022-10-22T16:30:18.719Z,100586.81
2022-10-22T16:33:07.248Z,100592.16
2022-10-22T16:35:41.284Z,100598.16
2022-10-22T16:38:10.157Z,100593.47
2022-10-22T16:40:38.133Z,100593.16
2022-10-22T16:43:06.153Z,100597.63
2022-10-22T16:45:34.064Z,100597.28
2022-10-22T16:48:01.878Z,100596.97
2022-10-22T16:50:29.727Z,100602.94
2022-10-22T16:52:58.917Z,100602.75
2022-10-22T16:55:29.153Z,100612.91
2022-10-22T16:57:56.957Z,100610.06
2022-10-22T17:00:24.948Z,100607.19
2022-10-22T17:02:53.884Z,100605.84
2022-10-22T17:05:22.326Z,100609.97
2022-10-22T17:07:50.959Z,100610.63
2022-10-22T17:10:21.190Z,100613.91
2022-10-22T17:12:49.550Z,100612.56
2022-10-22T17:15:17.740Z,100622.03
2022-10-22T17:17:48.334Z,100621.84
2022-10-22T17:20:19.246Z,100627.78
2022-10-22T17:22:47.330Z,100629.28
2022-10-22T17:25:17.562Z,100631.84
2022-10-22T17:27:46.797Z,100626.66
2022-10-22T17:30:17.619Z,100642.25
2022-10-22T17:32:45.792Z,100642.72
2022-10-22T17:35:15.830Z,100643.50
2022-10-22T17:37:44.438Z,100648.63
2022-10-22T17:40:14.468Z,100658.59
2022-10-22T17:42:42.909Z,100653.56
2022-10-22T17:45:12.360Z,100654.88
2022-10-22T17:47:40.772Z,100656.47
2022-10-22T17:50:10.045Z,100651.41
2022-10-22T17:52:38.231Z,100654.41
2022-10-22T17:55:06.710Z,100657.94
2022-10-22T17:57:34.598Z,100660.94
2022-10-22T18:00:02.433Z,100669.38
2022-10-22T18:02:34.085Z,100666.16
2022-10-22T18:05:01.893Z,100661.00
2022-10-22T18:07:29.913Z,100665.78
2022-10-22T18:09:57.743Z,100677.56
2022-10-22T18:12:25.724Z,100682.34
2022-10-22T18:14:53.733Z,100679.31
2022-10-22T18:17:21.595Z,100678.78
2022-10-22T18:19:50.830Z,100672.94
2022-10-22T18:22:18.746Z,100673.38
2022-10-22T18:24:48.582Z,100677.31
2022-10-22T18:27:16.459Z,100667.81
2022-10-22T18:29:49.860Z,100671.75
2022-10-22T18:32:17.814Z,100675.38
2022-10-22T18:34:45.663Z,100670.91
2022-10-22T18:37:14.818Z,100673.03
2022-10-22T18:39:42.721Z,100675.84
2022-10-22T18:42:10.584Z,100675.00
2022-10-22T18:44:38.558Z,100671.66
2022-10-22T18:47:08.540Z,100675.59
2022-10-22T18:49:38.992Z,100667.91
2022-10-22T18:52:06.946Z,100665.56
2022-10-22T18:54:36.782Z,100672.00
2022-10-22T18:57:06.981Z,100667.69
2022-10-22T18:59:34.859Z,100660.84
2022-10-22T19:02:02.771Z,100660.31
2022-10-22T19:04:36.905Z,100670.38
2022-10-22T19:09:39.015Z,100666.91
2022-10-22T19:12:07.128Z,100673.88
2022-10-22T19:14:34.927Z,100663.53
2022-10-22T19:17:04.862Z,100663.16
2022-10-22T19:19:35.778Z,100663.59
2022-10-22T19:22:04.591Z,100661.19
2022-10-22T19:24:32.437Z,100661.50
2022-10-22T19:27:03.788Z,100662.63
2022-10-22T19:29:31.673Z,100667.81
2022-10-22T19:32:02.134Z,100674.06
2022-10-22T19:34:30.373Z,100674.22
2022-10-22T19:36:58.987Z,100670.88
2022-10-22T19:39:28.813Z,100669.19
2022-10-22T19:41:57.176Z,100669.38
2022-10-22T19:44:26.471Z,100679.13
2022-10-22T19:46:54.487Z,100670.50
2022-10-22T19:49:23.136Z,100670.63
2022-10-22T19:51:51.167Z,100667.28
2022-10-22T19:54:20.339Z,100666.44
2022-10-22T19:56:50.913Z,100670.22
2022-10-22T19:59:20.570Z,100674.00
2022-10-22T20:01:49.898Z,100678.06
2022-10-22T20:04:18.908Z,100683.81
2022-10-22T20:06:47.242Z,100683.41
2022-10-22T20:09:15.193Z,100678.38
2022-10-22T20:11:43.297Z,100679.09
2022-10-22T20:14:11.256Z,100682.72
2022-10-22T20:16:39.186Z,100676.59
2022-10-22T20:19:16.111Z,100681.19
2022-10-22T20:21:45.090Z,100677.72
2022-10-22T20:24:13.434Z,100676.06
2022-10-22T20:26:41.279Z,100681.50
2022-10-22T20:29:09.421Z,100672.00
2022-10-22T20:31:37.255Z,100681.78
2022-10-22T20:34:05.190Z,100681.25
2022-10-22T20:36:34.445Z,100689.47
2022-10-22T20:39:06.696Z,100693.22
2022-10-22T20:41:37.643Z,100692.69
2022-10-22T20:44:05.997Z,100701.91
2022-10-22T20:46:36.065Z,100689.91
2022-10-22T20:49:10.089Z,100688.34
2022-10-22T20:51:39.787Z,100689.63
2022-10-22T20:54:09.096Z,100703.03
2022-10-22T20:56:38.856Z,100701.47
2022-10-22T20:59:08.341Z,100697.28
2022-10-22T21:01:39.530Z,100695.75
2022-10-22T21:04:08.459Z,100695.19
2022-10-22T21:06:38.123Z,100697.84
2022-10-22T21:09:08.231Z,100694.63
2022-10-22T21:11:37.278Z,100682.38
2022-10-22T21:14:05.882Z,100680.69
2022-10-22T21:16:34.038Z,100678.19
2022-10-22T21:19:02.389Z,100677.63
2022-10-22T21:21:30.227Z,100675.69
2022-10-22T21:23:58.011Z,100675.81
2022-10-22T21:26:27.259Z,100673.16
2022-10-22T21:28:55.055Z,100677.34
2022-10-22T21:31:25.870Z,100677.47
2022-10-22T21:33:54.637Z,100670.66
2022-10-22T21:36:23.761Z,100668.84
2022-10-22T21:38:52.366Z,100671.50
2022-10-22T21:41:22.282Z,100668.84
2022-10-22T21:43:52.055Z,100668.97
2022-10-22T21:46:22.415Z,100672.00
2022-10-22T21:48:54.358Z,100672.56
2022-10-22T21:51:23.677Z,100665.59
2022-10-22T21:56:26.528Z,100666.00
2022-10-22T21:58:56.358Z,100666.72
2022-10-22T22:01:24.351Z,100665.88
2022-10-22T22:03:53.310Z,100662.50
2022-10-22T22:06:28.356Z,100655.53
2022-10-22T22:09:03.818Z,100665.31
2022-10-22T22:11:32.510Z,100674.50
2022-10-22T22:14:01.682Z,100673.13
2022-10-22T22:16:32.637Z,100668.94
2022-10-22T22:21:32.633Z,100681.06
2022-10-22T22:24:00.431Z,100691.22
2022-10-22T22:26:30.383Z,100680.63
2022-10-22T22:28:59.143Z,100684.50
2022-10-22T22:31:30.203Z,100682.84
2022-10-22T22:34:03.044Z,100685.63
2022-10-22T22:36:35.214Z,100685.06
2022-10-22T22:39:03.723Z,100684.34
2022-10-22T22:41:31.640Z,100682.81
2022-10-22T22:43:59.492Z,100676.13
2022-10-22T22:46:28.625Z,100670.50
2022-10-22T22:48:56.677Z,100675.81
2022-10-22T22:51:25.469Z,100678.72
2022-10-22T22:53:53.227Z,100674.66
2022-10-22T22:56:23.355Z,100666.88
2022-10-22T22:58:51.601Z,100662.69
2022-10-22T23:01:21.715Z,100658.63
2022-10-22T23:03:56.615Z,100658.91
2022-10-22T23:06:26.223Z,100654.47
2022-10-22T23:08:54.736Z,100663.34
2022-10-22T23:11:23.721Z,100659.19
2022-10-22T23:13:55.041Z,100647.06
2022-10-22T23:16:24.582Z,100653.44
2022-10-22T23:18:54.397Z,100646.75
2022-10-22T23:21:24.496Z,100642.41
2022-10-22T23:23:54.517Z,100636.56
2022-10-22T23:26:24.125Z,100633.91
2022-10-22T23:28:54.324Z,100637.66
2022-10-22T23:31:24.450Z,100646.56
2022-10-22T23:33:53.720Z,100638.06
2022-10-22T23:36:21.703Z,100632.19
2022-10-22T23:38:51.921Z,100636.78
2022-10-22T23:41:19.642Z,100625.75
2022-10-22T23:43:47.494Z,100632.44
2022-10-22T23:46:15.413Z,100618.44
2022-10-22T23:48:43.644Z,100625.38
2022-10-22T23:51:14.913Z,100623.56
2022-10-22T23:53:44.482Z,100621.06
2022-10-22T23:56:15.177Z,100623.72
2022-10-22T23:58:43.864Z,100628.16
